Time;durP1;ratioP1;P1;durP2;ratioP2;P2;SDS_P1;SDS_P2;PMS_P1;PMS_P2;Temp;Humidity;BMP_temperature;BMP_pressure;BME280_temperature;BME280_humidity;BME280_pressure;Samples;Min_cycle;Max_cycle;Signal;HPM_P1;HPM_P2
2024/01/07 00:01:57;;;;;;;52.72;32.17;;;;;;;-146.58;100.00;69501.63;5028599;28;20037;-58
2024/01/07 00:04:23;;;;;;;50.70;32.65;;;;;;;-146.58;100.00;69501.63;5030789;28;20108;-58
2024/01/07 00:06:48;;;;;;;43.35;30.17;;;;;;;-146.58;100.00;69501.63;5029291;28;20096;-59
2024/01/07 00:09:13;;;;;;;54.97;36.63;;;;;;;-146.58;100.00;69501.63;5030774;28;20040;-58
2024/01/07 00:11:40;;;;;;;47.78;31.42;;;;;;;-146.58;100.00;69501.63;5029486;28;20037;-58
2024/01/07 00:14:05;;;;;;;47.03;33.67;;;;;;;-146.58;100.00;69501.63;5031070;28;20025;-59
2024/01/07 00:16:31;;;;;;;43.28;31.48;;;;;;;-146.58;100.00;69501.63;5028942;28;20194;-58
2024/01/07 00:18:56;;;;;;;46.58;34.45;;;;;;;-146.58;100.00;69501.63;5029858;28;20022;-58
2024/01/07 00:21:22;;;;;;;51.55;37.08;;;;;;;-146.58;100.00;69501.63;5029121;28;20041;-58
2024/01/07 00:23:47;;;;;;;49.08;34.30;;;;;;;-146.58;100.00;69501.63;5030309;28;20025;-58
2024/01/07 00:26:13;;;;;;;47.65;32.15;;;;;;;-146.58;100.00;69501.63;5029058;28;20041;-59
2024/01/07 00:28:38;;;;;;;54.20;32.25;;;;;;;-146.58;100.00;69501.63;5030277;28;20022;-61
2024/01/07 00:31:03;;;;;;;56.05;37.55;;;;;;;-146.58;100.00;69501.63;5029298;28;20078;-64
2024/01/07 00:33:31;;;;;;;51.38;34.28;;;;;;;-146.58;100.00;69501.63;5030769;28;20365;-64
2024/01/07 00:35:56;;;;;;;46.88;32.17;;;;;;;-146.58;100.00;69501.63;5029362;28;20042;-64
2024/01/07 00:38:21;;;;;;;44.45;31.67;;;;;;;-146.58;100.00;69501.63;5030547;28;20032;-64
2024/01/07 00:40:47;;;;;;;48.50;31.48;;;;;;;-146.58;100.00;69501.63;5029340;28;20044;-64
2024/01/07 00:43:12;;;;;;;42.03;29.73;;;;;;;-146.58;100.00;69501.63;5030895;28;20026;-64
2024/01/07 00:45:37;;;;;;;48.67;31.80;;;;;;;-146.58;100.00;69501.63;5028795;28;20038;-64
2024/01/07 00:48:03;;;;;;;43.47;28.73;;;;;;;-146.58;100.00;69501.63;5030490;28;20481;-64
2024/01/07 00:50:28;;;;;;;43.83;30.65;;;;;;;-146.58;100.00;69501.63;5028946;28;20069;-65
2024/01/07 00:52:54;;;;;;;43.92;32.83;;;;;;;-146.58;100.00;69501.63;5030394;28;20025;-64
2024/01/07 00:55:19;;;;;;;48.58;32.38;;;;;;;-146.58;100.00;69501.63;5028892;28;20034;-64
2024/01/07 00:57:45;;;;;;;42.22;29.83;;;;;;;-146.58;100.00;69501.63;5033307;28;20021;-64
2024/01/07 01:00:10;;;;;;;45.63;30.45;;;;;;;-146.58;100.00;69501.63;5032883;28;20382;-64
2024/01/07 01:02:37;;;;;;;46.30;30.25;;;;;;;-146.58;100.00;69501.63;5034474;28;20045;-64
2024/01/07 01:05:03;;;;;;;45.55;30.27;;;;;;;-146.58;100.00;69501.63;5032322;28;20034;-63
2024/01/07 01:07:28;;;;;;;42.38;29.73;;;;;;;-146.58;100.00;69501.63;5033735;28;20026;-64
2024/01/07 01:09:54;;;;;;;46.97;27.63;;;;;;;-146.58;100.00;69501.63;5033024;28;20037;-64
2024/01/07 01:12:19;;;;;;;44.65;30.35;;;;;;;-146.58;100.00;69501.63;5034508;28;20021;-64
2024/01/07 01:14:44;;;;;;;47.80;27.25;;;;;;;-146.58;100.00;69501.63;5032358;28;20037;-64
2024/01/07 01:17:10;;;;;;;46.17;29.75;;;;;;;-146.58;100.00;69501.63;5034086;28;20022;-64
2024/01/07 01:19:35;;;;;;;52.05;28.13;;;;;;;-146.58;100.00;69501.63;5032978;28;20104;-64
2024/01/07 01:22:01;;;;;;;43.78;31.58;;;;;;;-146.58;100.00;69501.63;5033709;28;20021;-64
2024/01/07 01:24:26;;;;;;;39.95;29.05;;;;;;;-146.58;100.00;69501.63;5032390;28;20029;-62
2024/01/07 01:26:51;;;;;;;45.45;26.77;;;;;;;-146.58;100.00;69501.63;5034178;28;20457;-64
2024/01/07 01:29:17;;;;;;;45.40;30.48;;;;;;;-146.58;100.00;69501.63;5032285;28;20041;-62
2024/01/07 01:31:42;;;;;;;43.17;31.85;;;;;;;-146.58;100.00;69501.63;5033742;28;20034;-65
2024/01/07 01:34:07;;;;;;;50.90;37.03;;;;;;;-146.58;100.00;69501.63;5032781;28;20374;-65
2024/01/07 01:36:33;;;;;;;45.20;28.83;;;;;;;-146.58;100.00;69501.63;5033376;28;20071;-64
2024/01/07 01:38:58;;;;;;;38.85;27.13;;;;;;;-146.58;100.00;69501.63;5032292;28;20510;-64
2024/01/07 01:41:24;;;;;;;40.00;28.30;;;;;;;-146.58;100.00;69501.63;5033931;28;20076;-65
2024/01/07 01:43:49;;;;;;;44.08;28.63;;;;;;;-146.58;100.00;69501.63;5032396;28;20021;-65
2024/01/07 01:46:14;;;;;;;42.17;26.58;;;;;;;-146.58;100.00;69501.63;5033206;28;20021;-64
2024/01/07 01:48:41;;;;;;;37.45;26.40;;;;;;;-146.58;100.00;69501.63;5032058;28;20025;-64
2024/01/07 01:51:07;;;;;;;47.83;28.23;;;;;;;-146.58;100.00;69501.63;5033957;28;20052;-65
2024/01/07 01:53:33;;;;;;;42.92;25.27;;;;;;;-146.58;100.00;69501.63;5031561;28;20485;-64
2024/01/07 01:56:01;;;;;;;35.22;24.75;;;;;;;-146.58;100.00;69501.63;5033712;28;20381;-65
2024/01/07 01:58:28;;;;;;;39.30;28.30;;;;;;;-146.58;100.00;69501.63;5033677;28;20377;-64
2024/01/07 02:00:54;;;;;;;40.67;30.48;;;;;;;-146.58;100.00;69501.63;5031765;28;20104;-65
2024/01/07 02:03:20;;;;;;;42.72;28.70;;;;;;;-146.58;100.00;69501.63;5033542;28;20549;-65
2024/01/07 02:05:45;;;;;;;37.88;25.52;;;;;;;-146.58;100.00;69501.63;5031719;28;20111;-64
2024/01/07 02:08:11;;;;;;;40.10;26.80;;;;;;;-146.58;100.00;69501.63;5032441;28;20021;-64
2024/01/07 02:10:37;;;;;;;41.38;25.00;;;;;;;-146.58;100.00;69501.63;5031432;28;20128;-64
2024/01/07 02:13:03;;;;;;;37.60;27.13;;;;;;;-146.58;100.00;69501.63;5033126;28;20108;-64
2024/01/07 02:15:29;;;;;;;32.30;26.20;;;;;;;-146.58;100.00;69501.63;5031197;28;20570;-64
2024/01/07 02:17:55;;;;;;;39.50;26.48;;;;;;;-146.58;100.00;69501.63;5033311;28;20028;-65
2024/01/07 02:20:20;;;;;;;45.55;27.30;;;;;;;-146.58;100.00;69501.63;5031624;28;20045;-65
2024/01/07 02:22:45;;;;;;;46.85;30.60;;;;;;;-146.58;100.00;69501.63;5032339;28;20029;-65
2024/01/07 02:25:11;;;;;;;42.60;28.80;;;;;;;-146.58;100.00;69501.63;5031626;28;20103;-64
2024/01/07 02:27:36;;;;;;;39.90;25.70;;;;;;;-146.58;100.00;69501.63;5032826;28;20025;-64
2024/01/07 02:30:02;;;;;;;41.47;26.75;;;;;;;-146.58;100.00;69501.63;5031108;28;20052;-64
2024/01/07 02:32:27;;;;;;;37.25;27.63;;;;;;;-146.58;100.00;69501.63;5032632;28;20064;-64
2024/01/07 02:34:52;;;;;;;43.33;27.67;;;;;;;-146.58;100.00;69501.63;5031405;28;20071;-65
2024/01/07 02:37:20;;;;;;;36.72;24.70;;;;;;;-146.58;100.00;69501.63;5032507;28;20031;-64
2024/01/07 02:39:45;;;;;;;37.65;24.02;;;;;;;-146.58;100.00;69501.63;5031473;28;20407;-64
2024/01/07 02:42:10;;;;;;;41.15;26.60;;;;;;;-146.58;100.00;69501.63;5032686;28;20026;-65
2024/01/07 02:44:36;;;;;;;36.78;24.70;;;;;;;-146.58;100.00;69501.63;5030587;28;20033;-64
2024/01/07 02:47:01;;;;;;;31.65;25.00;;;;;;;-146.58;100.00;69501.63;5033055;28;20049;-64
2024/01/07 02:49:28;;;;;;;32.05;23.75;;;;;;;-146.58;100.00;69501.63;5030795;28;20045;-64
2024/01/07 02:51:53;;;;;;;29.38;25.27;;;;;;;-146.58;100.00;69501.63;5032372;28;20029;-64
2024/01/07 02:54:18;;;;;;;29.13;24.63;;;;;;;-146.58;100.00;69501.63;5031377;28;20037;-64
2024/01/07 02:56:44;;;;;;;33.40;22.80;;;;;;;-146.58;100.00;69501.63;5031950;28;20469;-65
2024/01/07 02:59:09;;;;;;;25.38;22.13;;;;;;;-146.58;100.00;69501.63;5030850;28;20037;-65
2024/01/07 03:01:40;;;;;;;29.85;23.25;;;;;;;-146.58;100.00;69501.63;5032249;28;20384;-65
2024/01/07 03:04:06;;;;;;;34.03;24.77;;;;;;;-146.58;100.00;69501.63;5030801;28;20033;-64
2024/01/07 03:06:32;;;;;;;26.88;21.42;;;;;;;-146.58;100.00;69501.63;5031779;28;20025;-64
2024/01/07 03:08:57;;;;;;;26.85;20.00;;;;;;;-146.58;100.00;69501.63;5030661;28;20515;-65
2024/01/07 03:11:23;;;;;;;32.58;21.85;;;;;;;-146.58;100.00;69501.63;5032478;28;20087;-64
2024/01/07 03:13:48;;;;;;;28.02;22.25;;;;;;;-146.58;100.00;69501.63;5030180;28;20017;-64
2024/01/07 03:16:20;;;;;;;26.58;20.27;;;;;;;-146.58;100.00;69501.63;5031829;28;20033;-65
2024/01/07 03:18:46;;;;;;;27.10;20.70;;;;;;;-146.58;100.00;69501.63;5029850;28;20113;-64
2024/01/07 03:21:22;;;;;;;22.25;19.10;;;;;;;-146.58;100.00;69501.63;5031439;28;20021;-64
2024/01/07 03:23:49;;;;;;;28.65;22.52;;;;;;;-146.58;100.00;69501.63;5030426;28;20064;-64
2024/01/07 03:26:15;;;;;;;23.83;20.70;;;;;;;-146.58;100.00;69501.63;5031905;28;20017;-64
2024/01/07 03:28:41;;;;;;;28.77;20.60;;;;;;;-146.58;100.00;69501.63;5029524;28;20041;-64
2024/01/07 03:31:15;;;;;;;27.75;20.63;;;;;;;-146.58;100.00;69501.63;5031815;28;20018;-64
2024/01/07 03:33:41;;;;;;;23.88;19.58;;;;;;;-146.58;100.00;69501.63;5030166;28;20033;-64
2024/01/07 03:36:09;;;;;;;26.38;20.02;;;;;;;-146.58;100.00;69501.63;5031482;28;20405;-63
2024/01/07 03:38:34;;;;;;;29.58;23.15;;;;;;;-146.58;100.00;69501.63;5029789;28;20029;-67
2024/01/07 03:41:00;;;;;;;21.95;18.35;;;;;;;-146.58;100.00;69501.63;5031807;28;20044;-63
2024/01/07 03:43:25;;;;;;;26.88;20.92;;;;;;;-146.58;100.00;69501.63;5031098;28;20029;-64
2024/01/07 03:45:51;;;;;;;22.90;19.25;;;;;;;-146.58;100.00;69501.63;5030049;28;20030;-63
2024/01/07 03:48:16;;;;;;;29.70;20.88;;;;;;;-146.58;100.00;69501.63;5031453;28;20500;-63
2024/01/07 03:50:41;;;;;;;25.17;21.02;;;;;;;-146.58;100.00;69501.63;5029592;28;20037;-63
2024/01/07 03:53:07;;;;;;;26.80;20.52;;;;;;;-146.58;100.00;69501.63;5031558;28;20079;-63
2024/01/07 03:55:32;;;;;;;23.30;19.65;;;;;;;-146.58;100.00;69501.63;5029784;28;20049;-63
2024/01/07 03:57:57;;;;;;;25.92;19.83;;;;;;;-146.58;100.00;69501.63;5030878;28;20025;-64
2024/01/07 04:00:23;;;;;;;21.40;19.00;;;;;;;-146.58;100.00;69501.63;5029790;28;20049;-64
2024/01/07 04:02:48;;;;;;;21.10;18.73;;;;;;;-146.58;100.00;69501.63;5031234;28;20546;-63
2024/01/07 04:05:14;;;;;;;25.38;20.27;;;;;;;-146.58;100.00;69501.63;5029635;28;20077;-64
2024/01/07 04:07:40;;;;;;;24.67;18.45;;;;;;;-146.58;100.00;69501.63;5030948;28;20063;-64
2024/01/07 04:10:06;;;;;;;23.58;16.00;;;;;;;-146.58;100.00;69501.63;5029635;28;20037;-64
2024/01/07 04:12:31;;;;;;;23.80;20.02;;;;;;;-146.58;100.00;69501.63;5030519;28;20432;-63
2024/01/07 04:14:56;;;;;;;20.77;18.45;;;;;;;-146.58;100.00;69501.63;5029548;28;20523;-64
2024/01/07 04:17:23;;;;;;;26.60;20.65;;;;;;;-146.58;100.00;69501.63;5030963;28;20021;-64
2024/01/07 04:19:48;;;;;;;28.90;19.83;;;;;;;-146.58;100.00;69501.63;5028939;28;20049;-64
2024/01/07 04:22:14;;;;;;;20.77;18.52;;;;;;;-146.58;100.00;69501.63;5031345;28;20087;-64
2024/01/07 04:24:42;;;;;;;30.48;21.95;;;;;;;-146.58;100.00;69501.63;5029434;28;20037;-64
2024/01/07 04:27:07;;;;;;;26.88;19.17;;;;;;;-146.58;100.00;69501.63;5030820;28;20025;-64
2024/01/07 04:29:33;;;;;;;25.42;19.33;;;;;;;-146.58;100.00;69501.63;5028925;28;20037;-64
2024/01/07 04:31:58;;;;;;;26.25;21.15;;;;;;;-146.58;100.00;69501.63;5030950;28;20026;-64
2024/01/07 04:34:24;;;;;;;22.05;19.23;;;;;;;-146.58;100.00;69501.63;5028978;28;20037;-64
2024/01/07 04:36:49;;;;;;;26.55;20.08;;;;;;;-146.58;100.00;69501.63;5030646;28;20033;-64
2024/01/07 04:39:15;;;;;;;23.70;21.13;;;;;;;-146.58;100.00;69501.63;5030900;28;20059;-64
2024/01/07 04:41:40;;;;;;;27.60;18.20;;;;;;;-146.58;100.00;69501.63;5028985;28;20041;-64
2024/01/07 04:44:06;;;;;;;25.77;17.92;;;;;;;-146.58;100.00;69501.63;5030762;28;20026;-64
2024/01/07 04:46:35;;;;;;;31.45;21.52;;;;;;;-146.58;100.00;69501.63;5029162;28;20505;-64
2024/01/07 04:49:01;;;;;;;27.52;18.60;;;;;;;-146.58;100.00;69501.63;5030386;28;20025;-65
2024/01/07 04:51:26;;;;;;;22.67;18.48;;;;;;;-146.58;100.00;69501.63;5028920;28;20033;-65
2024/01/07 04:53:51;;;;;;;23.70;19.02;;;;;;;-146.58;100.00;69501.63;5030884;28;20385;-64
2024/01/07 04:56:17;;;;;;;27.73;19.17;;;;;;;-146.58;100.00;69501.63;5029231;28;20050;-65
2024/01/07 04:58:42;;;;;;;29.48;20.80;;;;;;;-146.58;100.00;69501.63;5029766;28;20033;-65
2024/01/07 05:01:08;;;;;;;26.90;21.23;;;;;;;-146.58;100.00;69501.63;5029324;28;20034;-65
2024/01/07 05:03:33;;;;;;;24.40;20.83;;;;;;;-146.58;100.00;69501.63;5030514;28;20152;-66
2024/01/07 05:05:59;;;;;;;22.23;18.92;;;;;;;-146.58;100.00;69501.63;5028594;28;20040;-66
2024/01/07 05:08:24;;;;;;;26.65;21.20;;;;;;;-146.58;100.00;69501.63;5030435;28;20026;-67
2024/01/07 05:10:50;;;;;;;26.52;20.95;;;;;;;-146.58;100.00;69501.63;5028774;28;20046;-65
2024/01/07 05:13:15;;;;;;;24.52;20.15;;;;;;;-146.58;100.00;69501.63;5030235;28;20026;-65
2024/01/07 05:15:40;;;;;;;22.95;18.58;;;;;;;-146.58;100.00;69501.63;5028975;28;20041;-65
2024/01/07 05:18:09;;;;;;;24.60;20.60;;;;;;;-146.58;100.00;69501.63;5030407;28;20481;-65
2024/01/07 05:20:34;;;;;;;;;;;;;;;-146.58;100.00;69501.63;5029212;28;20052;-65
2024/01/07 05:23:00;;;;;;;25.40;20.40;;;;;;;-146.58;100.00;69501.63;5030739;28;19909;-63
2024/01/07 05:25:25;;;;;;;21.65;19.42;;;;;;;-146.58;100.00;69501.63;5028816;28;20072;-63
2024/01/07 05:27:50;;;;;;;26.27;18.90;;;;;;;-146.58;100.00;69501.63;5029767;28;20503;-63
2024/01/07 05:30:16;;;;;;;24.02;19.80;;;;;;;-146.58;100.00;69501.63;5028931;28;20064;-64
2024/01/07 05:32:41;;;;;;;21.70;17.35;;;;;;;-146.58;100.00;69501.63;5029956;28;20021;-64
2024/01/07 05:35:07;;;;;;;26.58;19.63;;;;;;;-146.58;100.00;69501.63;5028721;28;20037;-64
2024/01/07 05:37:32;;;;;;;22.50;17.20;;;;;;;-146.58;100.00;69501.63;5030062;28;20449;-64
2024/01/07 05:39:58;;;;;;;23.02;16.77;;;;;;;-146.58;100.00;69501.63;5028836;28;20508;-64
2024/01/07 05:42:23;;;;;;;21.20;17.15;;;;;;;-146.58;100.00;69501.63;5030741;28;20036;-64
2024/01/07 05:44:48;;;;;;;25.40;18.13;;;;;;;-146.58;100.00;69501.63;5032294;28;20495;-64
2024/01/07 05:47:14;;;;;;;20.67;17.02;;;;;;;-146.58;100.00;69501.63;5033646;28;20088;-64
2024/01/07 05:49:39;;;;;;;24.55;17.15;;;;;;;-146.58;100.00;69501.63;5031614;28;20036;-63
2024/01/07 05:52:04;;;;;;;22.63;17.63;;;;;;;-146.58;100.00;69501.63;5033869;28;20029;-63
2024/01/07 05:54:30;;;;;;;20.30;17.23;;;;;;;-146.58;100.00;69501.63;5032047;28;20065;-63
2024/01/07 05:56:55;;;;;;;18.33;16.52;;;;;;;-146.58;100.00;69501.63;5033301;28;20029;-64
2024/01/07 05:59:21;;;;;;;17.58;15.43;;;;;;;-146.58;100.00;69501.63;5033769;28;20022;-65
2024/01/07 06:01:46;;;;;;;19.00;16.65;;;;;;;-146.58;100.00;69501.63;5031945;28;20072;-65
2024/01/07 06:04:11;;;;;;;19.48;15.80;;;;;;;-146.58;100.00;69501.63;5032959;28;20032;-65
2024/01/07 06:06:37;;;;;;;17.85;15.13;;;;;;;-146.58;100.00;69501.63;5031849;28;20033;-65
2024/01/07 06:09:02;;;;;;;18.98;17.00;;;;;;;-146.58;100.00;69501.63;5033257;28;20404;-64
2024/01/07 06:11:27;;;;;;;16.67;14.88;;;;;;;-146.58;100.00;69501.63;5031282;28;20041;-64
2024/01/07 06:13:53;;;;;;;20.42;16.00;;;;;;;-146.58;100.00;69501.63;5033394;28;20036;-64
2024/01/07 06:16:18;;;;;;;17.45;13.88;;;;;;;-146.58;100.00;69501.63;5031845;28;20440;-64
2024/01/07 06:18:44;;;;;;;17.40;14.93;;;;;;;-146.58;100.00;69501.63;5032193;28;20499;-64
2024/01/07 06:21:09;;;;;;;15.30;13.35;;;;;;;-146.58;100.00;69501.63;5031948;28;20052;-64
2024/01/07 06:23:35;;;;;;;18.25;14.57;;;;;;;-146.58;100.00;69501.63;5032946;28;20022;-64
2024/01/07 06:26:03;;;;;;;16.02;14.40;;;;;;;-146.58;100.00;69501.63;5031418;28;20041;-64
2024/01/07 06:28:28;;;;;;;19.27;15.65;;;;;;;-146.58;100.00;69501.63;5032802;28;20022;-64
2024/01/07 06:30:54;;;;;;;18.30;14.60;;;;;;;-146.58;100.00;69501.63;5031615;28;20045;-64
2024/01/07 06:33:20;;;;;;;18.30;16.40;;;;;;;-146.58;100.00;69501.63;5032515;28;20405;-65
2024/01/07 06:35:46;;;;;;;19.92;17.23;;;;;;;-146.58;100.00;69501.63;5030959;28;20183;-65
2024/01/07 06:38:11;;;;;;;20.23;15.05;;;;;;;-146.58;100.00;69501.63;5031956;28;20033;-64
2024/01/07 06:40:36;;;;;;;18.65;16.73;;;;;;;-146.58;100.00;69501.63;5030647;28;20068;-64
2024/01/07 06:43:02;;;;;;;19.23;16.67;;;;;;;-146.58;100.00;69501.63;5033132;28;20037;-64
2024/01/07 06:45:27;;;;;;;18.45;16.63;;;;;;;-146.58;100.00;69501.63;5030737;28;20049;-64
2024/01/07 06:47:53;;;;;;;16.17;14.38;;;;;;;-146.58;100.00;69501.63;5032257;28;20041;-64
2024/01/07 06:50:20;;;;;;;18.17;15.57;;;;;;;-146.58;100.00;69501.63;5030778;28;20493;-64
2024/01/07 06:52:45;;;;;;;19.00;16.20;;;;;;;-146.58;100.00;69501.63;5031991;28;20654;-63
2024/01/07 06:55:11;;;;;;;20.17;14.82;;;;;;;-146.58;100.00;69501.63;5029084;28;20045;-64
2024/01/07 06:57:36;;;;;;;20.65;18.65;;;;;;;-146.58;100.00;69501.63;5031569;28;20034;-63
2024/01/07 07:00:02;;;;;;;18.30;16.35;;;;;;;-146.58;100.00;69501.63;5030357;28;20103;-63
2024/01/07 07:02:28;;;;;;;16.85;15.05;;;;;;;-146.58;100.00;69501.63;5031082;28;20131;-63
2024/01/07 07:04:53;;;;;;;19.58;17.55;;;;;;;-146.58;100.00;69501.63;5030195;28;20552;-63
2024/01/07 07:07:19;;;;;;;17.25;15.15;;;;;;;-146.58;100.00;69501.63;5032249;28;20022;-63
2024/01/07 07:09:44;;;;;;;17.63;15.10;;;;;;;-146.58;100.00;69501.63;5029975;28;20049;-63
2024/01/07 07:12:12;;;;;;;17.85;15.52;;;;;;;-146.58;100.00;69501.63;5031922;28;20029;-63
2024/01/07 07:14:37;;;;;;;14.52;13.15;;;;;;;-146.58;100.00;69501.63;5030282;28;20129;-63
2024/01/07 07:17:03;;;;;;;21.00;14.20;;;;;;;-146.58;100.00;69501.63;5031686;28;20029;-66
2024/01/07 07:19:28;;;;;;;15.98;14.43;;;;;;;-146.58;100.00;69501.63;5030395;28;20124;-67
2024/01/07 07:21:54;;;;;;;17.42;13.25;;;;;;;-146.58;100.00;69501.63;5031860;28;20025;-61
2024/01/07 07:24:19;;;;;;;16.13;14.52;;;;;;;-146.58;100.00;69501.63;5030133;28;20042;-63
2024/01/07 07:26:44;;;;;;;18.08;15.93;;;;;;;-146.58;100.00;69501.63;5031283;28;20025;-60
2024/01/07 07:29:10;;;;;;;15.68;13.95;;;;;;;-146.58;100.00;69501.63;5029392;28;20381;-59
2024/01/07 07:31:36;;;;;;;16.45;13.25;;;;;;;-146.58;100.00;69501.63;5031012;28;20503;-59
2024/01/07 07:34:05;;;;;;;20.95;15.05;;;;;;;-146.58;100.00;69501.63;5029712;28;20083;-60
2024/01/07 07:36:31;;;;;;;18.92;15.77;;;;;;;-146.58;100.00;69501.63;5030183;28;20029;-59
2024/01/07 07:38:56;;;;;;;18.05;15.23;;;;;;;-146.58;100.00;69501.63;5030254;28;20041;-59
2024/01/07 07:41:21;;;;;;;14.95;13.38;;;;;;;-146.58;100.00;69501.63;5028869;28;20044;-59
2024/01/07 07:43:47;;;;;;;15.18;13.57;;;;;;;-146.58;100.00;69501.63;5029344;28;20400;-59
2024/01/07 07:46:13;;;;;;;20.13;16.83;;;;;;;-146.58;100.00;69501.63;5031040;28;20024;-59
2024/01/07 07:48:38;;;;;;;15.43;13.35;;;;;;;-146.58;100.00;69501.63;5027659;28;20548;-59
2024/01/07 07:51:04;;;;;;;17.33;14.45;;;;;;;-146.58;100.00;69501.63;5031554;28;20075;-59
2024/01/07 07:53:29;;;;;;;18.25;15.02;;;;;;;-146.58;100.00;69501.63;5029750;28;20021;-58
2024/01/07 07:55:55;;;;;;;18.65;16.65;;;;;;;-146.58;100.00;69501.63;5030110;28;20021;-59
2024/01/07 07:58:20;;;;;;;18.33;15.25;;;;;;;-146.58;100.00;69501.63;5029220;28;20381;-59
2024/01/07 08:00:46;;;;;;;18.23;15.50;;;;;;;-146.58;100.00;69501.63;5028783;28;20060;-58
2024/01/07 08:03:11;;;;;;;15.77;14.25;;;;;;;-146.58;100.00;69501.63;5030276;28;20110;-59
2024/01/07 08:05:37;;;;;;;15.18;13.60;;;;;;;-146.58;100.00;69501.63;5027642;28;20041;-60
2024/01/07 08:08:02;;;;;;;18.10;16.23;;;;;;;-146.58;100.00;69501.63;5030729;28;20024;-59
2024/01/07 08:10:28;;;;;;;22.10;14.85;;;;;;;-146.58;100.00;69501.63;5027676;28;20045;-59
2024/01/07 08:12:54;;;;;;;15.38;13.77;;;;;;;-146.58;100.00;69501.63;5029746;28;20037;-59
2024/01/07 08:15:19;;;;;;;16.05;14.52;;;;;;;-146.58;100.00;69501.63;5029039;28;20065;-59
2024/01/07 08:17:45;;;;;;;16.80;12.95;;;;;;;-146.58;100.00;69501.63;5029972;28;20037;-59
2024/01/07 08:20:11;;;;;;;16.20;13.13;;;;;;;-146.58;100.00;69501.63;5027657;28;20037;-60
2024/01/07 08:22:36;;;;;;;15.60;14.02;;;;;;;-146.58;100.00;69501.63;5029556;28;20026;-59
2024/01/07 08:25:02;;;;;;;13.35;12.07;;;;;;;-146.58;100.00;69501.63;5028426;28;20041;-59
2024/01/07 08:27:27;;;;;;;21.95;14.88;;;;;;;-146.58;100.00;69501.63;5030061;28;20105;-59
2024/01/07 08:29:53;;;;;;;17.02;14.55;;;;;;;-146.58;100.00;69501.63;5028010;28;20041;-58
2024/01/07 08:32:19;;;;;;;12.98;11.65;;;;;;;-146.58;100.00;69501.63;5029711;28;20033;-59
2024/01/07 08:34:44;;;;;;;19.05;11.77;;;;;;;-146.58;100.00;69501.63;5028639;28;20073;-58
2024/01/07 08:37:10;;;;;;;13.02;10.80;;;;;;;-146.58;100.00;69501.63;5029108;28;20068;-59
2024/01/07 08:39:36;;;;;;;16.90;13.57;;;;;;;-146.58;100.00;69501.63;5027904;28;20042;-59
2024/01/07 08:42:01;;;;;;;13.25;11.90;;;;;;;-146.58;100.00;69501.63;5029987;28;20052;-59
2024/01/07 08:44:26;;;;;;;15.48;11.95;;;;;;;-146.58;100.00;69501.63;5027409;28;20049;-59
2024/01/07 08:46:52;;;;;;;12.25;11.02;;;;;;;-146.58;100.00;69501.63;5029743;28;20052;-59
2024/01/07 08:49:17;;;;;;;15.93;13.18;;;;;;;-146.58;100.00;69501.63;5028518;28;20038;-59
2024/01/07 08:51:43;;;;;;;14.10;11.95;;;;;;;-146.58;100.00;69501.63;5028624;28;20538;-59
2024/01/07 08:54:08;;;;;;;13.98;12.55;;;;;;;-146.58;100.00;69501.63;5028481;28;20667;-59
2024/01/07 08:56:34;;;;;;;19.58;11.13;;;;;;;-146.58;100.00;69501.63;5029728;28;20392;-59
2024/01/07 08:58:59;;;;;;;13.43;11.05;;;;;;;-146.58;100.00;69501.63;5027192;28;20113;-59
2024/01/07 09:01:25;;;;;;;10.85;9.75;;;;;;;-146.58;100.00;69501.63;5029371;28;20025;-59
2024/01/07 09:03:50;;;;;;;12.80;10.57;;;;;;;-146.58;100.00;69501.63;5028081;28;20029;-59
2024/01/07 09:06:15;;;;;;;15.07;11.60;;;;;;;-146.58;100.00;69501.63;5028857;28;20483;-59
2024/01/07 09:08:42;;;;;;;18.85;13.00;;;;;;;-146.58;100.00;69501.63;5027493;28;20040;-59
2024/01/07 09:11:10;;;;;;;11.75;9.63;;;;;;;-146.58;100.00;69501.63;5029832;28;20025;-59
2024/01/07 09:13:36;;;;;;;13.48;11.07;;;;;;;-146.58;100.00;69501.63;5027804;28;20100;-59
2024/01/07 09:16:02;;;;;;;12.63;11.30;;;;;;;-146.58;100.00;69501.63;5029378;28;20508;-59
2024/01/07 09:18:27;;;;;;;10.40;9.50;;;;;;;-146.58;100.00;69501.63;5031212;28;20079;-59
2024/01/07 09:20:53;;;;;;;8.73;7.93;;;;;;;-146.58;100.00;69501.63;5030742;28;20103;-59
2024/01/07 09:23:18;;;;;;;11.15;10.05;;;;;;;-146.58;100.00;69501.63;5033178;28;20083;-58
2024/01/07 09:25:43;;;;;;;9.60;8.75;;;;;;;-146.58;100.00;69501.63;5031820;28;20524;-60
2024/01/07 09:28:09;;;;;;;15.02;9.63;;;;;;;-146.58;100.00;69501.63;5032704;28;20029;-59
2024/01/07 09:30:34;;;;;;;8.82;7.78;;;;;;;-146.58;100.00;69501.63;5031356;28;20562;-59
2024/01/07 09:32:59;;;;;;;10.05;8.82;;;;;;;-146.58;100.00;69501.63;5033375;28;20386;-59
2024/01/07 09:35:25;;;;;;;9.70;8.80;;;;;;;-146.58;100.00;69501.63;5030772;28;20046;-59
2024/01/07 09:37:50;;;;;;;10.43;8.38;;;;;;;-146.58;100.00;69501.63;5032242;28;20060;-59
2024/01/07 09:40:19;;;;;;;12.75;8.35;;;;;;;-146.58;100.00;69501.63;5031819;28;20045;-60
2024/01/07 09:42:45;;;;;;;8.77;7.50;;;;;;;-146.58;100.00;69501.63;5032209;28;20025;-59
2024/01/07 09:45:13;;;;;;;7.43;6.75;;;;;;;-146.58;100.00;69501.63;5031163;28;20527;-59
2024/01/07 09:47:40;;;;;;;8.27;7.25;;;;;;;-146.58;100.00;69501.63;5033300;28;20021;-59
2024/01/07 09:50:06;;;;;;;8.02;7.25;;;;;;;-146.58;100.00;69501.63;5029287;28;20040;-59
2024/01/07 09:52:33;;;;;;;10.70;8.10;;;;;;;-146.58;100.00;69501.63;5031950;28;20041;-59
2024/01/07 09:55:02;;;;;;;12.73;9.70;;;;;;;-146.58;100.00;69501.63;5031330;28;20187;-59
2024/01/07 09:57:28;;;;;;;8.27;6.50;;;;;;;-146.58;100.00;69501.63;5032917;28;20037;-59
2024/01/07 09:59:53;;;;;;;8.60;7.80;;;;;;;-146.58;100.00;69501.63;5031518;28;20079;-59
2024/01/07 10:02:20;;;;;;;8.32;7.53;;;;;;;-146.58;100.00;69501.63;5032703;28;20059;-59
2024/01/07 10:04:47;;;;;;;7.95;7.28;;;;;;;-146.58;100.00;69501.63;5030967;28;20041;-59
2024/01/07 10:07:12;;;;;;;8.35;6.28;;;;;;;-146.58;100.00;69501.63;5032372;28;20020;-59
2024/01/07 10:09:42;;;;;;;8.90;6.53;;;;;;;-146.58;100.00;69501.63;5030814;28;20408;-59
2024/01/07 10:12:08;;;;;;;7.57;6.88;;;;;;;-146.58;100.00;69501.63;5032662;28;20041;-59
2024/01/07 10:14:33;;;;;;;6.22;5.63;;;;;;;-146.58;100.00;69501.63;5030730;28;20049;-59
2024/01/07 10:16:59;;;;;;;7.85;6.68;;;;;;;-146.58;100.00;69501.63;5031182;28;20065;-60
2024/01/07 10:19:25;;;;;;;6.32;5.72;;;;;;;-146.58;100.00;69501.63;5030281;28;20099;-60
2024/01/07 10:22:03;;;;;;;5.82;5.38;;;;;;;-146.58;100.00;69501.63;5032496;28;20030;-59
2024/01/07 10:24:37;;;;;;;7.82;6.68;;;;;;;-146.58;100.00;69501.63;5030601;28;20046;-59
2024/01/07 10:27:03;;;;;;;5.82;5.32;;;;;;;-146.58;100.00;69501.63;5033212;28;20051;-60
2024/01/07 10:29:29;;;;;;;6.13;5.00;;;;;;;-146.58;100.00;69501.63;5030149;28;20493;-60
2024/01/07 10:31:57;;;;;;;6.15;5.22;;;;;;;-146.58;100.00;69501.63;5032474;28;20059;-60
2024/01/07 10:34:24;;;;;;;5.40;5.03;;;;;;;-146.58;100.00;69501.63;5030116;28;20055;-61
2024/01/07 10:36:52;;;;;;;7.22;6.63;;;;;;;-146.58;100.00;69501.63;5031843;28;20045;-60
2024/01/07 10:39:18;;;;;;;;;;;;;;;-146.58;100.00;69501.63;5031509;28;20449;-60
2024/01/07 10:41:46;;;;;;;6.43;5.13;;;;;;;-146.58;100.00;69501.63;5025141;28;19917;-61
2024/01/07 10:44:11;;;;;;;5.75;5.25;;;;;;;-146.58;100.00;69501.63;5011883;28;20121;-59
2024/01/07 10:46:36;;;;;;;7.20;6.70;;;;;;;-146.58;100.00;69501.63;5031515;28;20029;-59
2024/01/07 10:49:13;;;;;;;5.32;4.88;;;;;;;-146.58;100.00;69501.63;5030530;28;20044;-60
2024/01/07 10:51:40;;;;;;;5.43;4.95;;;;;;;-146.58;100.00;69501.63;5029188;28;20025;-59